Time;durP1;ratioP1;P1;durP2;ratioP2;P2;SDS_P1;SDS_P2;PMS_P1;PMS_P2;Temp;Humidity;BMP_temperature;BMP_pressure;BME280_temperature;BME280_humidity;BME280_pressure;Samples;Min_cycle;Max_cycle;Signal;HPM_P1;HPM_P2
2021/04/18 00:01:54;;;;;;;10.13;4.40;;;9.50;63.50;;;;;;5051650;28;20512;-63
2021/04/18 00:04:19;;;;;;;12.77;4.80;;;9.50;63.60;;;;;;5050320;28;20452;-63
2021/04/18 00:06:45;;;;;;;10.47;4.47;;;9.50;63.70;;;;;;5032740;28;20073;-64
2021/04/18 00:09:12;;;;;;;12.73;4.73;;;9.50;63.80;;;;;;5032486;28;20049;-63
2021/04/18 00:11:39;;;;;;;14.47;5.10;;;9.50;63.80;;;;;;5050052;28;20490;-64
2021/04/18 00:14:06;;;;;;;12.13;4.77;;;9.40;63.90;;;;;;5050518;28;20044;-63
2021/04/18 00:16:33;;;;;;;13.37;5.00;;;9.40;64.00;;;;;;5050445;28;20045;-63
2021/04/18 00:18:59;;;;;;;12.20;4.70;;;9.40;64.10;;;;;;5049106;28;20037;-63
2021/04/18 00:21:24;;;;;;;12.90;4.80;;;9.40;64.40;;;;;;5052581;28;20041;-63
2021/04/18 00:23:50;;;;;;;9.77;4.40;;;9.40;64.50;;;;;;5053393;28;20045;-64
2021/04/18 00:26:16;;;;;;;14.10;4.93;;;9.40;64.60;;;;;;5053931;28;20041;-63
2021/04/18 00:28:42;;;;;;;12.63;4.90;;;9.30;65.10;;;;;;5053510;28;20037;-64
2021/04/18 00:31:08;;;;;;;11.93;5.30;;;9.30;64.80;;;;;;5053338;28;20120;-64
2021/04/18 00:33:34;;;;;;;11.83;4.80;;;9.30;64.90;;;;;;5053816;28;20048;-63
2021/04/18 00:36:00;;;;;;;12.87;4.63;;;9.20;65.10;;;;;;5053705;28;20041;-64
2021/04/18 00:38:25;;;;;;;10.67;4.73;;;9.20;65.30;;;;;;5052586;28;20033;-63
2021/04/18 00:40:51;;;;;;;13.27;5.30;;;9.20;66.00;;;;;;5053740;28;20112;-63
2021/04/18 00:43:17;;;;;;;12.90;5.10;;;9.20;65.60;;;;;;5053357;28;20574;-62
2021/04/18 00:45:43;;;;;;;14.70;5.60;;;9.20;65.80;;;;;;5053711;28;20036;-63
2021/04/18 00:48:09;;;;;;;12.83;4.83;;;9.10;65.80;;;;;;5035016;28;20037;-63
2021/04/18 00:50:39;;;;;;;9.93;4.70;;;9.10;66.00;;;;;;5052764;28;20037;-62
2021/04/18 00:53:09;;;;;;;11.20;5.10;;;9.10;66.30;;;;;;5053319;28;20117;-63
2021/04/18 00:55:38;;;;;;;12.43;5.07;;;9.10;66.40;;;;;;5035281;28;20037;-62
2021/04/18 00:58:05;;;;;;;16.67;5.20;;;9.00;66.40;;;;;;5052604;28;20037;-62
2021/04/18 01:00:32;;;;;;;13.10;5.20;;;9.00;66.50;;;;;;5053053;28;20037;-62
2021/04/18 01:02:58;;;;;;;10.30;4.80;;;9.00;66.60;;;;;;5056383;28;20060;-63
2021/04/18 01:05:25;;;;;;;13.70;5.40;;;9.00;66.80;;;;;;5038203;28;20048;-67
2021/04/18 01:07:52;;;;;;;14.80;5.13;;;9.00;67.40;;;;;;5055645;28;20040;-68
2021/04/18 01:10:18;;;;;;;12.77;5.60;;;9.00;67.10;;;;;;5057009;28;20048;-65
2021/04/18 01:12:44;;;;;;;16.07;5.23;;;9.00;67.10;;;;;;5056553;28;20512;-66
2021/04/18 01:15:12;;;;;;;10.90;4.97;;;9.00;67.20;;;;;;5039490;28;20052;-69
2021/04/18 01:17:38;;;;;;;14.30;5.20;;;9.00;67.20;;;;;;5038379;28;20056;-65
2021/04/18 01:20:09;;;;;;;14.30;5.20;;;8.90;67.10;;;;;;5038804;28;20041;-66
2021/04/18 01:22:34;;;;;;;12.97;5.20;;;8.90;67.10;;;;;;5038358;28;20033;-66
2021/04/18 01:25:23;;;;;;;11.00;5.10;;;8.80;67.00;;;;;;5054421;28;20102;-66
2021/04/18 01:28:14;;;;;;;11.60;5.30;;;8.70;67.10;;;;;;5037316;28;20041;-65
2021/04/18 01:30:41;;;;;;;9.50;4.50;;;8.70;67.20;;;;;;5056347;28;20040;-66
2021/04/18 01:33:08;;;;;;;11.47;4.77;;;8.60;67.30;;;;;;5056144;28;20095;-75
2021/04/18 01:35:35;;;;;;;10.63;4.73;;;8.50;67.60;;;;;;5021646;28;20029;-67
2021/04/18 01:38:01;;;;;;;14.63;5.03;;;8.50;67.90;;;;;;5038775;28;20063;-72
2021/04/18 01:40:29;;;;;;;11.23;4.90;;;8.50;68.10;;;;;;5038526;28;20425;-71
2021/04/18 01:42:54;;;;;;;13.40;5.20;;;8.40;68.30;;;;;;5039009;28;20040;-65
2021/04/18 01:45:21;;;;;;;12.50;4.90;;;8.40;68.40;;;;;;5035107;28;20116;-64
2021/04/18 01:47:49;;;;;;;10.13;4.70;;;8.40;68.50;;;;;;5034103;28;20032;-65
2021/04/18 01:50:19;;;;;;;11.40;4.40;;;8.40;68.50;;;;;;5052820;28;20576;-65
2021/04/18 01:52:47;;;;;;;13.43;4.53;;;8.30;69.00;;;;;;5052274;28;20037;-65
2021/04/18 01:55:15;;;;;;;12.13;4.50;;;8.30;68.40;;;;;;5034778;28;20044;-66
2021/04/18 01:57:41;;;;;;;12.27;4.80;;;8.20;68.40;;;;;;5042130;28;20037;-66
2021/04/18 02:00:14;;;;;;;13.07;5.10;;;8.10;68.50;;;;;;5042349;28;20187;-66
2021/04/18 02:02:40;;;;;;;12.90;4.83;;;8.00;68.60;;;;;;5061175;28;20059;-65
2021/04/18 02:05:15;;;;;;;10.13;4.30;;;8.00;68.90;;;;;;5042970;28;20064;-66
2021/04/18 02:07:42;;;;;;;10.73;4.30;;;7.90;69.20;;;;;;5036047;28;20650;-65
2021/04/18 02:10:10;;;;;;;10.23;4.20;;;7.90;69.50;;;;;;5035546;28;20047;-65
2021/04/18 02:12:36;;;;;;;11.13;4.50;;;7.80;69.50;;;;;;5036230;28;20031;-70
2021/04/18 02:15:04;;;;;;;13.60;4.43;;;7.80;69.50;;;;;;5036335;28;20033;-65
2021/04/18 02:17:30;;;;;;;8.80;3.90;;;7.70;69.70;;;;;;5037077;28;20033;-65
2021/04/18 02:19:56;;;;;;;12.77;4.70;;;7.70;69.80;;;;;;5020917;28;20083;-65
2021/04/18 02:22:22;;;;;;;11.37;4.30;;;7.60;69.80;;;;;;5054111;28;20037;-65
2021/04/18 02:24:51;;;;;;;13.17;4.30;;;7.60;69.90;;;;;;5052340;28;20028;-65
2021/04/18 02:27:18;;;;;;;12.93;4.50;;;7.50;69.90;;;;;;5051099;28;20063;-65
2021/04/18 02:29:54;;;;;;;10.53;4.03;;;7.50;70.10;;;;;;5035486;28;20558;-64
2021/04/18 02:32:22;;;;;;;11.97;4.00;;;7.50;70.20;;;;;;5033771;28;20029;-65
2021/04/18 02:34:59;;;;;;;11.40;3.90;;;7.40;70.20;;;;;;5033630;28;20025;-65
2021/04/18 02:37:25;;;;;;;11.13;3.80;;;7.30;70.30;;;;;;5033159;28;20175;-65
2021/04/18 02:39:51;;;;;;;10.47;3.93;;;7.30;70.40;;;;;;5051220;28;20124;-65
2021/04/18 02:42:17;;;;;;;10.27;3.70;;;7.20;70.40;;;;;;5051656;28;20033;-64
2021/04/18 02:44:43;;;;;;;14.37;4.17;;;7.20;70.60;;;;;;5032688;28;20029;-64
2021/04/18 02:47:09;;;;;;;9.97;3.97;;;7.10;70.70;;;;;;5049702;28;20040;-64
2021/04/18 02:49:41;;;;;;;11.20;4.00;;;7.10;70.70;;;;;;5033330;28;20032;-64
2021/04/18 02:52:07;;;;;;;13.03;3.80;;;7.00;70.70;;;;;;5032829;28;20040;-65
2021/04/18 02:54:34;;;;;;;13.00;4.10;;;7.00;70.90;;;;;;5032727;28;20033;-64
2021/04/18 02:57:03;;;;;;;14.67;4.07;;;6.90;71.10;;;;;;5016022;28;20029;-64
2021/04/18 02:59:29;;;;;;;10.43;4.00;;;6.90;71.20;;;;;;5016999;28;20755;-64
2021/04/18 03:01:56;;;;;;;11.57;4.13;;;6.80;71.20;;;;;;5033334;28;20049;-64
2021/04/18 03:04:22;;;;;;;12.00;4.20;;;6.80;71.50;;;;;;5050410;28;20063;-64
2021/04/18 03:06:48;;;;;;;12.67;4.07;;;6.80;71.70;;;;;;5033393;28;20033;-64
2021/04/18 03:09:14;;;;;;;10.90;4.17;;;6.70;71.80;;;;;;5053065;28;20036;-64
2021/04/18 03:11:44;;;;;;;10.32;4.43;;;6.70;71.80;;;;;;5020468;28;20025;-64
2021/04/18 03:14:21;;;;;;;11.67;4.07;;;6.70;71.90;;;;;;5036588;28;20033;-64
2021/04/18 03:16:48;;;;;;;12.63;4.57;;;6.70;71.90;;;;;;5035956;28;20037;-64
2021/04/18 03:19:13;;;;;;;11.90;4.37;;;6.60;72.00;;;;;;5018256;28;20067;-64
2021/04/18 03:21:40;;;;;;;13.40;4.17;;;6.60;72.30;;;;;;5050906;28;20523;-64
2021/04/18 03:24:06;;;;;;;10.37;4.17;;;6.50;72.20;;;;;;5050862;28;20037;-64
2021/04/18 03:26:32;;;;;;;10.13;4.00;;;6.50;72.40;;;;;;5032932;28;20033;-64
2021/04/18 03:29:02;;;;;;;8.97;3.73;;;6.50;72.60;;;;;;5049853;28;20048;-64
2021/04/18 03:31:29;;;;;;;11.07;4.40;;;6.40;72.70;;;;;;5033207;28;20063;-64
2021/04/18 03:33:58;;;;;;;11.85;4.45;;;6.40;72.80;;;;;;5032490;28;20044;-64
2021/04/18 03:36:26;;;;;;;12.87;4.40;;;6.40;72.90;;;;;;5032630;28;20401;-64
2021/04/18 03:38:57;;;;;;;;;;;6.30;73.00;;;;;;5016420;28;20033;-64
2021/04/18 03:41:26;;;;;;;11.23;4.07;;;6.40;73.10;;;;;;5032803;28;20490;-64
2021/04/18 03:43:52;;;;;;;9.27;3.90;;;6.30;73.00;;;;;;5050835;28;20033;-64
2021/04/18 03:46:20;;;;;;;12.47;4.13;;;6.30;73.10;;;;;;5032312;28;20047;-64
2021/04/18 03:48:49;;;;;;;11.33;4.33;;;6.20;73.30;;;;;;5016018;28;20117;-64
2021/04/18 03:51:17;;;;;;;12.47;4.40;;;6.20;73.40;;;;;;5032340;28;20033;-64
2021/04/18 03:53:46;;;;;;;10.77;4.18;;;6.20;73.60;;;;;;5032513;28;20429;-64
2021/04/18 03:56:17;;;;;;;11.97;4.10;;;6.10;73.60;;;;;;5034678;28;20037;-64
2021/04/18 03:58:47;;;;;;;12.27;4.35;;;6.10;73.70;;;;;;5053793;28;20264;-64
2021/04/18 04:01:17;;;;;;;12.00;4.47;;;6.10;73.90;;;;;;5054338;28;20390;-64
2021/04/18 04:03:42;;;;;;;12.80;3.63;;;6.10;73.80;;;;;;5036070;28;20063;-64
2021/04/18 04:06:12;;;;;;;12.70;4.37;;;6.00;73.80;;;;;;5036306;28;20043;-63
2021/04/18 04:08:37;;;;;;;10.07;3.90;;;6.00;73.80;;;;;;5035375;28;20392;-66
2021/04/18 04:11:04;;;;;;;14.67;4.00;;;6.00;74.10;;;;;;5054222;28;20029;-63
2021/04/18 04:13:33;;;;;;;9.83;3.97;;;6.00;74.20;;;;;;5054161;28;20409;-63
2021/04/18 04:16:00;;;;;;;12.10;4.07;;;5.90;74.20;;;;;;5053674;28;20447;-65
2021/04/18 04:18:28;;;;;;;11.63;4.00;;;5.90;74.30;;;;;;5036429;28;20037;-63
2021/04/18 04:21:11;;;;;;;8.87;3.87;;;5.90;74.40;;;;;;5053756;28;20040;-63
2021/04/18 04:23:52;;;;;;;11.07;4.20;;;5.90;74.50;;;;;;5036298;28;20037;-63
2021/04/18 04:26:18;;;;;;;10.43;4.00;;;5.90;74.70;;;;;;5053000;28;20060;-63
2021/04/18 04:28:43;;;;;;;11.53;3.80;;;5.90;74.80;;;;;;5035392;28;20041;-65
2021/04/18 04:31:09;;;;;;;17.13;3.90;;;5.90;74.90;;;;;;5053378;28;20036;-65
2021/04/18 04:33:39;;;;;;;8.10;3.50;;;5.90;75.00;;;;;;5036185;28;20098;-65
2021/04/18 04:36:05;;;;;;;10.83;3.70;;;6.00;75.10;;;;;;5035985;28;20033;-65
2021/04/18 04:38:31;;;;;;;10.73;3.87;;;5.90;75.20;;;;;;5053015;28;20033;-63
2021/04/18 04:40:57;;;;;;;13.53;4.03;;;5.90;75.30;;;;;;5053545;28;20493;-63
2021/04/18 04:43:23;;;;;;;10.07;3.53;;;6.00;75.40;;;;;;5052766;28;20037;-63
2021/04/18 04:45:49;;;;;;;11.80;4.30;;;6.00;75.40;;;;;;5035727;28;20036;-65
2021/04/18 04:48:15;;;;;;;11.43;4.10;;;6.10;75.50;;;;;;5053226;28;20152;-64
2021/04/18 04:50:40;;;;;;;12.40;3.93;;;6.10;75.60;;;;;;5053234;28;20032;-65
2021/04/18 04:53:06;;;;;;;12.50;4.20;;;6.10;75.60;;;;;;5053663;28;20032;-65
2021/04/18 04:55:32;;;;;;;11.43;3.77;;;6.20;75.70;;;;;;5035746;28;20427;-65
2021/04/18 04:57:57;;;;;;;9.73;4.10;;;6.20;75.80;;;;;;5052616;28;20037;-65
2021/04/18 05:00:23;;;;;;;13.53;4.00;;;6.30;76.00;;;;;;5053092;28;20045;-65
2021/04/18 05:02:49;;;;;;;11.37;4.00;;;6.30;76.00;;;;;;5052964;28;20092;-65
2021/04/18 05:05:15;;;;;;;11.40;3.37;;;6.40;76.00;;;;;;5053315;28;20037;-65
2021/04/18 05:07:40;;;;;;;9.93;3.67;;;6.50;76.00;;;;;;5051861;28;20132;-65
2021/04/18 05:10:07;;;;;;;9.97;3.50;;;6.60;76.20;;;;;;5052750;28;20041;-65
2021/04/18 05:12:32;;;;;;;9.90;3.60;;;6.80;76.70;;;;;;5053267;28;20037;-65
2021/04/18 05:14:58;;;;;;;9.60;3.37;;;7.10;77.40;;;;;;5052520;28;20033;-66
2021/04/18 05:17:24;;;;;;;8.27;3.00;;;7.80;78.90;;;;;;5052386;28;20111;-65
2021/04/18 05:19:50;;;;;;;9.40;3.00;;;8.10;79.70;;;;;;5052865;28;20085;-65
2021/04/18 05:22:18;;;;;;;6.77;2.90;;;8.70;80.20;;;;;;5052644;28;20061;-65
2021/04/18 05:24:45;;;;;;;10.40;3.30;;;9.30;80.10;;;;;;5053139;28;20041;-65
2021/04/18 05:27:10;;;;;;;9.10;3.10;;;10.00;79.80;;;;;;5051868;28;20032;-65
2021/04/18 05:29:36;;;;;;;11.40;3.45;;;10.60;78.80;;;;;;5034934;28;20024;-65
2021/04/18 05:32:02;;;;;;;7.40;2.90;;;11.20;77.30;;;;;;5017893;28;20091;-65
2021/04/18 05:34:27;;;;;;;10.05;3.45;;;11.70;75.40;;;;;;5052032;28;20044;-65
2021/04/18 05:36:53;;;;;;;7.90;3.13;;;12.00;74.30;;;;;;5034649;28;20040;-66
2021/04/18 05:39:18;;;;;;;9.00;3.03;;;12.40;73.50;;;;;;5052501;28;20048;-65
2021/04/18 05:41:44;;;;;;;9.88;2.90;;;12.70;72.30;;;;;;5034256;28;20033;-64
2021/04/18 05:44:16;;;;;;;9.98;3.30;;;13.10;71.80;;;;;;5052567;28;20037;-64
2021/04/18 05:46:42;;;;;;;7.75;2.95;;;13.50;71.10;;;;;;5052261;28;20516;-63
2021/04/18 05:49:08;;;;;;;9.82;3.20;;;13.90;69.90;;;;;;5051521;28;20029;-61
2021/04/18 05:51:34;;;;;;;9.35;3.10;;;14.40;69.20;;;;;;5051962;28;20513;-61
2021/04/18 05:53:59;;;;;;;11.25;3.20;;;14.90;68.40;;;;;;5052248;28;20041;-61
2021/04/18 05:56:26;;;;;;;11.07;3.20;;;15.50;66.60;;;;;;5052041;28;20037;-61
2021/04/18 05:58:51;;;;;;;8.05;3.00;;;15.90;65.10;;;;;;5033089;28;20088;-63
2021/04/18 06:01:24;;;;;;;9.43;3.25;;;16.30;62.80;;;;;;5052016;28;20064;-63
2021/04/18 06:03:50;;;;;;;10.40;3.30;;;16.60;61.50;;;;;;5034187;28;20033;-63
2021/04/18 06:06:16;;;;;;;8.60;3.10;;;17.00;60.70;;;;;;5050982;28;20546;-63
2021/04/18 06:08:42;;;;;;;10.88;3.33;;;17.30;58.50;;;;;;5033438;28;20044;-64
2021/04/18 06:11:07;;;;;;;10.40;3.70;;;17.60;57.70;;;;;;5051338;28;20045;-64
2021/04/18 06:13:34;;;;;;;9.60;3.05;;;18.00;56.80;;;;;;5051938;28;20116;-63
2021/04/18 06:16:00;;;;;;;12.48;3.50;;;18.30;54.60;;;;;;5051706;28;20132;-63
2021/04/18 06:18:25;;;;;;;10.18;3.10;;;18.40;53.90;;;;;;5032829;28;20124;-63
2021/04/18 06:20:51;;;;;;;7.93;2.88;;;18.80;53.70;;;;;;5033765;28;20489;-64
2021/04/18 06:23:17;;;;;;;10.38;3.25;;;19.20;52.40;;;;;;5051514;28;20430;-65
2021/04/18 06:25:42;;;;;;;10.70;3.10;;;19.70;52.20;;;;;;5051345;28;20032;-65
2021/04/18 06:28:08;;;;;;;9.45;3.00;;;20.20;50.40;;;;;;5051047;28;20037;-65
2021/04/18 06:30:34;;;;;;;9.73;3.20;;;20.40;48.20;;;;;;5033334;28;20505;-65
2021/04/18 06:32:59;;;;;;;8.40;2.97;;;19.80;46.30;;;;;;5033698;28;20039;-64
2021/04/18 06:35:25;;;;;;;8.30;2.88;;;19.40;46.30;;;;;;5051414;28;20037;-64
2021/04/18 06:37:51;;;;;;;9.55;3.05;;;19.60;47.70;;;;;;5032267;28;20397;-65
2021/04/18 06:40:16;;;;;;;9.38;3.05;;;19.80;46.70;;;;;;5033555;28;20048;-65
2021/04/18 06:42:43;;;;;;;8.20;2.80;;;20.00;46.90;;;;;;5050838;28;20130;-65
2021/04/18 06:45:10;;;;;;;9.20;2.90;;;20.70;47.30;;;;;;5051204;28;20036;-65
2021/04/18 06:47:40;;;;;;;9.70;3.42;;;21.70;46.40;;;;;;5050458;28;20528;-63
2021/04/18 06:50:08;;;;;;;9.25;3.05;;;21.80;42.70;;;;;;5050837;28;20374;-65
2021/04/18 06:52:35;;;;;;;9.05;3.10;;;21.40;41.80;;;;;;5017012;28;20501;-67
2021/04/18 06:55:01;;;;;;;9.55;3.08;;;21.40;42.50;;;;;;5032456;28;20041;-67
2021/04/18 06:57:28;;;;;;;10.43;2.97;;;21.40;42.00;;;;;;5050279;28;20131;-67
2021/04/18 06:59:54;;;;;;;9.25;3.03;;;21.70;42.60;;;;;;5050619;28;20120;-68
2021/04/18 07:02:31;;;;;;;8.48;3.00;;;22.40;41.70;;;;;;5051014;28;20178;-67
2021/04/18 07:05:00;;;;;;;10.15;3.00;;;22.50;40.10;;;;;;5049616;28;20041;-69
2021/04/18 07:07:34;;;;;;;11.70;3.42;;;22.60;39.40;;;;;;5047426;28;20059;-68
2021/04/18 07:10:00;;;;;;;8.10;2.80;;;22.30;38.60;;;;;;5049641;28;20117;-65
2021/04/18 07:12:28;;;;;;;10.45;3.38;;;22.20;38.80;;;;;;5049787;28;20525;-65
2021/04/18 07:14:55;;;;;;;8.73;2.95;;;22.40;38.40;;;;;;5049777;28;20032;-64
2021/04/18 07:17:21;;;;;;;9.90;3.22;;;22.60;38.70;;;;;;5046889;28;20029;-64
2021/04/18 07:19:49;;;;;;;10.18;3.33;;;23.40;38.80;;;;;;5048831;28;20362;-65
2021/04/18 07:22:25;;;;;;;7.47;2.83;;;24.80;38.70;;;;;;5048549;28;20436;-65
2021/04/18 07:24:53;;;;;;;10.20;3.15;;;26.00;36.70;;;;;;5048340;28;20044;-65
2021/04/18 07:27:19;;;;;;;9.52;3.08;;;26.40;34.60;;;;;;5048397;28;20044;-65
2021/04/18 07:29:54;;;;;;;8.90;3.35;;;26.60;33.70;;;;;;5042785;28;20110;-65
2021/04/18 07:32:25;;;;;;;9.90;3.30;;;26.20;32.80;;;;;;5053426;28;20040;-64
2021/04/18 07:34:51;;;;;;;8.15;2.90;;;25.40;32.10;;;;;;5035636;28;20110;-65
2021/04/18 07:37:19;;;;;;;9.00;3.30;;;24.80;32.40;;;;;;5052634;28;20029;-64
2021/04/18 07:40:00;;;;;;;9.73;3.75;;;24.00;32.20;;;;;;5053855;28;20128;-64
2021/04/18 07:42:36;;;;;;;10.23;3.30;;;23.50;33.10;;;;;;5054134;28;20077;-65
2021/04/18 07:45:08;;;;;;;11.05;3.80;;;23.70;34.20;;;;;;5054021;28;20035;-64
2021/04/18 07:47:39;;;;;;;8.23;3.25;;;24.10;34.10;;;;;;5052105;28;20500;-65
2021/04/18 07:50:10;;;;;;;8.63;3.35;;;24.20;33.00;;;;;;5054269;28;20039;-67
2021/04/18 07:52:40;;;;;;;9.43;3.88;;;23.60;32.00;;;;;;5054061;28;20071;-67
2021/04/18 07:55:06;;;;;;;9.00;3.10;;;23.90;33.90;;;;;;5036259;28;20033;-67
2021/04/18 07:57:32;;;;;;;10.13;3.50;;;24.80;33.80;;;;;;5053031;28;20037;-67
2021/04/18 07:59:59;;;;;;;10.65;3.80;;;25.20;32.70;;;;;;5036464;28;20025;-68
2021/04/18 08:02:25;;;;;;;8.98;3.42;;;25.70;32.70;;;;;;5035779;28;20033;-67
2021/04/18 08:04:54;;;;;;;9.98;3.65;;;26.60;33.30;;;;;;5054069;28;20032;-68
2021/04/18 08:07:21;;;;;;;9.55;3.67;;;28.00;32.70;;;;;;5035265;28;20159;-67
2021/04/18 08:09:47;;;;;;;9.43;3.30;;;29.20;31.90;;;;;;5053549;28;20029;-66
2021/04/18 08:12:18;;;;;;;9.77;3.30;;;30.00;30.50;;;;;;5036116;28;20076;-68
2021/04/18 08:14:45;;;;;;;9.55;3.28;;;30.50;29.50;;;;;;5050984;28;20132;-66
2021/04/18 08:17:14;;;;;;;9.43;3.75;;;30.80;29.00;;;;;;5051131;28;20119;-66
2021/04/18 08:19:58;;;;;;;9.20;3.38;;;30.90;28.70;;;;;;5033372;28;20032;-67
2021/04/18 08:22:24;;;;;;;8.98;3.63;;;31.30;28.40;;;;;;5031788;28;20045;-67
2021/04/18 08:25:08;;;;;;;9.10;3.60;;;31.20;27.50;;;;;;5051363;28;20036;-68
2021/04/18 08:28:00;;;;;;;9.70;3.40;;;30.60;27.10;;;;;;5049416;28;20037;-67
2021/04/18 08:30:26;;;;;;;8.70;3.42;;;30.90;28.20;;;;;;5049764;28;20456;-67
2021/04/18 08:32:52;;;;;;;9.68;3.30;;;32.00;28.10;;;;;;5033218;28;20037;-67
2021/04/18 08:35:25;;;;;;;10.68;3.53;;;33.30;27.70;;;;;;5051124;28;20404;-68
2021/04/18 08:38:16;;;;;;;7.95;3.22;;;34.70;26.90;;;;;;5049775;28;20037;-68
2021/04/18 08:40:43;;;;;;;6.40;2.83;;;35.60;26.50;;;;;;5031172;28;20044;-67
2021/04/18 08:43:21;;;;;;;7.40;3.03;;;36.20;25.60;;;;;;5049740;28;20044;-67
2021/04/18 08:45:48;;;;;;;7.57;3.60;;;36.80;25.30;;;;;;5032284;28;20048;-67
2021/04/18 08:48:16;;;;;;;8.82;3.40;;;37.00;24.90;;;;;;5026352;28;20056;-67
2021/04/18 08:51:11;;;;;;;8.90;3.17;;;37.30;24.50;;;;;;5049578;28;20074;-67
2021/04/18 08:53:54;;;;;;;7.82;3.35;;;37.50;24.50;;;;;;5023496;28;20041;-67
2021/04/18 08:56:19;;;;;;;8.85;3.38;;;38.00;24.20;;;;;;5049289;28;20471;-69
2021/04/18 08:58:45;;;;;;;7.18;3.10;;;38.40;23.70;;;;;;5047952;28;20067;-67
2021/04/18 09:01:13;;;;;;;8.32;3.13;;;38.10;23.40;;;;;;5032783;28;20036;-68
2021/04/18 09:03:57;;;;;;;9.20;3.45;;;37.60;23.10;;;;;;5050193;28;20143;-67
2021/04/18 09:06:36;;;;;;;7.63;3.30;;;36.10;22.60;;;;;;5029230;28;20045;-67
2021/04/18 09:09:05;;;;;;;8.20;3.78;;;33.00;22.70;;;;;;5045168;28;20097;-66
2021/04/18 09:11:39;;;;;;;9.88;3.75;;;30.90;23.70;;;;;;5050603;28;20052;-66
2021/04/18 09:14:06;;;;;;;8.23;3.85;;;29.10;24.40;;;;;;5049338;28;20056;-65
2021/04/18 09:16:37;;;;;;;9.85;3.70;;;27.60;25.10;;;;;;5030563;28;20037;-66
2021/04/18 09:19:42;;;;;;;10.80;3.75;;;27.20;26.90;;;;;;5031295;28;20120;-65
2021/04/18 09:22:09;;;;;;;7.47;3.58;;;28.90;27.30;;;;;;4979431;28;20519;-66
2021/04/18 09:24:36;;;;;;;7.40;3.70;;;31.40;26.70;;;;;;4972353;28;20086;-66
2021/04/18 09:27:19;;;;;;;7.13;3.50;;;33.30;26.00;;;;;;5011447;28;20037;-68
2021/04/18 09:29:52;;;;;;;7.03;3.17;;;35.40;25.50;;;;;;5050290;28;20041;-67
2021/04/18 09:32:30;;;;;;;7.93;3.30;;;36.60;24.40;;;;;;5048410;28;20037;-67
2021/04/18 09:34:56;;;;;;;9.50;3.40;;;36.80;23.50;;;;;;5048693;28;20059;-67
2021/04/18 09:37:29;;;;;;;7.75;3.10;;;37.00;23.70;;;;;;5031831;28;20493;-68
2021/04/18 09:39:59;;;;;;;5.95;2.72;;;38.50;23.70;;;;;;5047363;28;20037;-68
2021/04/18 09:42:27;;;;;;;7.53;3.30;;;39.80;23.30;;;;;;5050617;28;20095;-67
2021/04/18 09:45:07;;;;;;;7.85;3.58;;;40.60;22.70;;;;;;5050084;28;20117;-67
2021/04/18 09:47:33;;;;;;;9.55;3.30;;;41.30;22.30;;;;;;5048496;28;20039;-69
2021/04/18 09:50:01;;;;;;;6.85;3.00;;;41.40;21.80;;;;;;5049604;28;20025;-68
2021/04/18 09:52:38;;;;;;;6.47;3.00;;;41.60;21.70;;;;;;5050418;28;20083;-69
2021/04/18 09:55:11;;;;;;;8.02;2.75;;;41.80;21.40;;;;;;5050503;28;20665;-68
2021/04/18 09:58:00;;;;;;;6.85;2.85;;;41.90;21.20;;;;;;5050813;28;20484;-68
2021/04/18 10:00:29;;;;;;;6.90;3.00;;;41.90;21.10;;;;;;5039608;28;20509;-68
2021/04/18 10:03:13;;;;;;;7.47;3.20;;;42.00;21.10;;;;;;5051276;28;20033;-69
2021/04/18 10:05:44;;;;;;;6.95;3.15;;;42.50;20.80;;;;;;5017801;28;20095;-69
2021/04/18 10:08:18;;;;;;;6.78;3.00;;;42.50;20.50;;;;;;5050357;28;20043;-70
2021/04/18 10:10:46;;;;;;;8.77;3.00;;;42.30;20.40;;;;;;5032755;28;20492;-69
2021/04/18 10:13:12;;;;;;;7.13;2.95;;;42.50;20.40;;;;;;5033079;28;20482;-70
2021/04/18 10:15:55;;;;;;;7.05;3.25;;;42.50;20.10;;;;;;5031860;28;20037;-69
2021/04/18 10:18:21;;;;;;;7.82;3.28;;;42.00;20.20;;;;;;5031499;28;20048;-69
2021/04/18 10:20:47;;;;;;;8.05;3.38;;;41.80;19.70;;;;;;5049832;28;20144;-70
2021/04/18 10:23:14;;;;;;;8.77;3.65;;;41.00;19.50;;;;;;5050103;28;20053;-68
2021/04/18 10:25:41;;;;;;;6.05;2.95;;;40.30;19.60;;;;;;5032002;28;20037;-69
2021/04/18 10:28:09;;;;;;;6.97;3.28;;;39.90;20.40;;;;;;5049063;28;20036;-69
2021/04/18 10:30:37;;;;;;;9.83;3.50;;;40.10;20.70;;;;;;5051239;28;20060;-70
2021/04/18 10:33:03;;;;;;;8.07;3.60;;;40.80;20.40;;;;;;5050491;28;20271;-69
2021/04/18 10:35:29;;;;;;;6.88;2.90;;;40.80;20.20;;;;;;5050800;28;20033;-68
2021/04/18 10:37:54;;;;;;;6.15;2.78;;;41.10;20.50;;;;;;5049959;28;20512;-69
2021/04/18 10:40:22;;;;;;;6.50;3.25;;;41.60;20.50;;;;;;5050630;28;20519;-70
2021/04/18 10:42:49;;;;;;;6.45;2.95;;;41.80;20.30;;;;;;5033165;28;20075;-69
2021/04/18 10:45:16;;;;;;;6.32;2.97;;;41.50;20.10;;;;;;5050220;28;20462;-68
2021/04/18 10:47:42;;;;;;;7.93;2.80;;;41.40;20.40;;;;;;5049996;28;20037;-69
2021/04/18 10:50:09;;;;;;;7.20;3.13;;;41.80;20.40;;;;;;5050593;28;20539;-69
2021/04/18 10:52:34;;;;;;;8.55;3.25;;;42.20;20.20;;;;;;5050135;28;20037;-69
2021/04/18 10:55:00;;;;;;;7.07;3.00;;;42.50;19.90;;;;;;5032683;28;20028;-69
2021/04/18 10:57:27;;;;;;;6.88;3.05;;;42.40;20.00;;;;;;5031686;28;20081;-69
2021/04/18 10:59:53;;;;;;;6.85;3.42;;;42.10;20.00;;;;;;5050621;28;20053;-67
2021/04/18 11:02:19;;;;;;;6.18;3.28;;;41.60;19.90;;;;;;5032783;28;20493;-69
2021/04/18 11:04:44;;;;;;;8.05;3.40;;;40.90;19.90;;;;;;5031658;28;20084;-70
2021/04/18 11:07:10;;;;;;;8.40;3.78;;;40.30;20.30;;;;;;5029704;28;20068;-70
2021/04/18 11:09:37;;;;;;;8.25;3.95;;;39.70;20.30;;;;;;5049787;28;20037;-69
2021/04/18 11:12:12;;;;;;;9.07;4.28;;;39.00;20.40;;;;;;5050350;28;20040;-69
2021/04/18 11:14:37;;;;;;;9.68;4.30;;;38.70;20.50;;;;;;5050267;28;20060;-70
2021/04/18 11:17:03;;;;;;;8.35;4.20;;;38.30;20.70;;;;;;5049629;28;20060;-69
2021/04/18 11:19:28;;;;;;;7.25;4.32;;;38.00;20.60;;;;;;5032826;28;20371;-69
2021/04/18 11:21:54;;;;;;;8.63;4.30;;;37.60;20.60;;;;;;5050347;28;20115;-69
2021/04/18 11:24:20;;;;;;;10.35;4.70;;;36.60;20.50;;;;;;5032187;28;20037;-69
2021/04/18 11:26:45;;;;;;;8.25;4.13;;;35.80;21.30;;;;;;5050222;28;20082;-69
2021/04/18 11:29:11;;;;;;;8.35;4.43;;;35.20;21.60;;;;;;5031630;28;20033;-69
2021/04/18 11:31:37;;;;;;;7.82;4.07;;;34.10;21.50;;;;;;5043789;28;20512;-69
2021/04/18 11:34:03;;;;;;;10.68;4.25;;;32.90;22.20;;;;;;5043453;28;20080;-69
2021/04/18 11:36:28;;;;;;;7.63;4.28;;;32.40;22.90;;;;;;5043401;28;20052;-68
2021/04/18 11:38:54;;;;;;;8.80;4.07;;;32.10;22.90;;;;;;5012570;28;20056;-68
2021/04/18 11:41:20;;;;;;;9.23;4.75;;;31.90;23.70;;;;;;5045353;28;20509;-68
2021/04/18 11:43:45;;;;;;;8.18;4.72;;;32.10;23.90;;;;;;5047203;28;20037;-69
2021/04/18 11:46:11;;;;;;;7.35;4.60;;;32.90;24.30;;;;;;5030437;28;20029;-69
2021/04/18 11:48:37;;;;;;;9.65;4.93;;;33.30;23.60;;;;;;5044108;28;20410;-69
2021/04/18 11:51:04;;;;;;;8.63;4.80;;;32.90;23.30;;;;;;5027601;28;20029;-68
2021/04/18 11:53:29;;;;;;;8.73;5.03;;;31.90;23.40;;;;;;5031288;28;20036;-68
2021/04/18 11:55:55;;;;;;;9.35;4.70;;;30.90;23.60;;;;;;5038992;28;20592;-68
2021/04/18 11:58:21;;;;;;;8.82;4.85;;;29.60;23.90;;;;;;5048677;28;20068;-68
2021/04/18 12:00:47;;;;;;;8.27;4.68;;;28.70;24.70;;;;;;5029576;28;20146;-68
2021/04/18 12:03:17;;;;;;;10.63;4.90;;;29.10;26.30;;;;;;5048623;28;20029;-69
2021/04/18 12:05:43;;;;;;;8.38;4.75;;;30.10;26.30;;;;;;5037473;28;20486;-69
2021/04/18 12:08:10;;;;;;;10.32;5.03;;;31.10;26.10;;;;;;5048414;28;20385;-68
2021/04/18 12:10:37;;;;;;;8.43;4.30;;;32.00;25.80;;;;;;5049013;28;20094;-69
2021/04/18 12:13:03;;;;;;;8.90;4.55;;;32.60;25.30;;;;;;5031221;28;20068;-69
2021/04/18 12:15:28;;;;;;;9.38;4.70;;;32.80;24.80;;;;;;5049265;28;20044;-68
2021/04/18 12:17:54;;;;;;;8.52;4.90;;;32.40;24.00;;;;;;5033701;28;20037;-68
2021/04/18 12:20:20;;;;;;;8.68;4.82;;;31.70;24.30;;;;;;5052293;28;20039;-68
2021/04/18 12:22:45;;;;;;;9.00;5.03;;;30.60;23.80;;;;;;5046966;28;20086;-68
2021/04/18 12:25:12;;;;;;;9.80;4.80;;;29.40;24.40;;;;;;5031330;28;20044;-67
2021/04/18 12:27:39;;;;;;;9.10;4.88;;;28.60;25.50;;;;;;5024560;28;20045;-68
2021/04/18 12:30:06;;;;;;;9.73;4.60;;;28.30;26.10;;;;;;5049945;28;20481;-68
2021/04/18 12:32:32;;;;;;;8.18;4.30;;;28.30;26.50;;;;;;5051131;28;20505;-69
2021/04/18 12:34:59;;;;;;;9.52;4.20;;;28.50;26.70;;;;;;5032614;28;20125;-68
2021/04/18 12:37:25;;;;;;;9.45;4.57;;;28.60;26.50;;;;;;5050347;28;20106;-68
2021/04/18 12:39:50;;;;;;;10.65;5.00;;;28.70;26.60;;;;;;5051533;28;20036;-67
2021/04/18 12:42:16;;;;;;;8.60;4.78;;;28.80;26.50;;;;;;5051726;28;20056;-67
2021/04/18 12:44:42;;;;;;;13.07;4.72;;;28.80;26.50;;;;;;5015778;28;20056;-68
2021/04/18 12:47:12;;;;;;;9.88;4.15;;;29.10;27.00;;;;;;5032482;28;20056;-68
2021/04/18 12:49:41;;;;;;;7.63;4.30;;;29.60;27.00;;;;;;5033621;28;20147;-67
2021/04/18 12:52:07;;;;;;;8.25;4.30;;;29.90;26.20;;;;;;5050904;28;20048;-68